Terminal Aerodrome Forecast
Issued by NWS

Home | Current Version | Previous Version | Text Only | Print | Product List | Glossary On
Versions: 1 2 3 4 5 6 7 8 9 10 11 12 13 14 15 16 17 18 19 20 21 22 23 24 25 26 27 28
000
FTUS43 KGRB 201900 AAA
TAFCWA
TAF AMD
KCWA 201951Z 2020/2118 VRB03KT P6SM OVC020
     FM202200 VRB03KT P6SM SCT020 BKN040
     FM210300 15003KT 5SM BR SCT040 SCT070
     FM210900 11003KT 3SM BR SCT040 BKN070 PROB30 2109/2112 -SHRA
     FM211400 13006KT 6SM BR BKN040
      TEMPO 2114/2118 3SM TSRA BR OVC025CB=

USA.gov is the U.S. government's official web portal to all federal, state and local government web resources and services.